Time;durP1;ratioP1;P1;durP2;ratioP2;P2;SDS_P1;SDS_P2;PMS_P1;PMS_P2;Temp;Humidity;BMP_temperature;BMP_pressure;BME280_temperature;BME280_humidity;BME280_pressure;Samples;Min_cycle;Max_cycle;Signal;HPM_P1;HPM_P2
2023/12/21 00:02:27;;;;;;;3.20;1.70;;;;;;;3.40;89.33;99152.27;134181;1298;23016;-72
2023/12/21 00:05:31;;;;;;;5.40;2.00;;;;;;;3.38;89.37;99145.79;134124;1301;22435;-72
2023/12/21 00:08:31;;;;;;;2.80;1.70;;;;;;;3.34;90.05;99142.30;134212;1298;22377;-72
2023/12/21 00:11:33;;;;;;;4.30;2.10;;;;;;;3.31;90.13;99136.86;134204;1298;22558;-72
2023/12/21 00:14:34;;;;;;;1.70;1.10;;;;;;;3.28;90.26;99135.07;134189;1291;22363;-72
2023/12/21 00:17:34;;;;;;;3.10;1.30;;;;;;;3.24;90.29;99132.07;134106;1298;22281;-72
2023/12/21 00:20:43;;;;;;;3.40;1.30;;;;;;;3.20;90.99;99131.55;134190;1301;22254;-72
2023/12/21 00:23:47;;;;;;;2.50;1.20;;;;;;;3.15;91.21;99124.48;134155;1298;22371;-72
2023/12/21 00:26:48;;;;;;;1.40;1.20;;;;;;;3.13;91.11;99127.66;134183;1298;22247;-72
2023/12/21 00:29:48;;;;;;;3.00;1.40;;;;;;;3.09;91.57;99116.84;134203;1298;23027;-72
2023/12/21 00:32:49;;;;;;;3.10;1.40;;;;;;;3.07;91.54;99113.04;134231;1297;22425;-72
2023/12/21 00:35:51;;;;;;;2.90;1.30;;;;;;;3.04;91.75;99107.34;134267;1298;22422;-72
2023/12/21 00:38:52;;;;;;;3.00;1.80;;;;;;;3.03;91.73;99105.21;134146;1304;22241;-72
2023/12/21 00:41:53;;;;;;;;;;;;;;;3.02;92.16;99104.09;134186;1294;22455;-72
2023/12/21 00:44:57;;;;;;;2.40;1.70;;;;;;;3.00;92.33;99097.25;134202;1297;22830;-72
2023/12/21 00:48:00;;;;;;;4.10;1.90;;;;;;;3.01;92.25;99090.73;134274;1298;22482;-72
2023/12/21 00:51:01;;;;;;;2.90;2.00;;;;;;;3.02;92.52;99087.35;134262;1294;22385;-72
2023/12/21 00:54:04;;;;;;;;;;;;;;;3.03;92.95;99075.66;134225;1303;22445;-72
2023/12/21 00:57:08;;;;;;;3.50;2.70;;;;;;;3.03;93.27;99077.88;134260;1298;22381;-72
2023/12/21 01:00:12;;;;;;;4.00;2.40;;;;;;;3.07;92.91;99076.45;134227;1298;23084;-71
2023/12/21 01:03:13;;;;;;;4.70;2.00;;;;;;;3.07;93.34;99067.23;134114;1298;22428;-72
2023/12/21 01:06:16;;;;;;;2.10;1.90;;;;;;;3.03;94.06;99057.52;134126;1298;22478;-72
2023/12/21 01:09:17;;;;;;;3.70;1.90;;;;;;;2.99;94.25;99050.02;134302;1298;23358;-72
2023/12/21 01:12:18;;;;;;;4.00;2.30;;;;;;;2.96;94.68;99037.51;134286;1298;22362;-72
2023/12/21 01:15:21;;;;;;;5.40;2.30;;;;;;;2.94;94.88;99031.13;134238;1298;22373;-72
2023/12/21 01:18:22;;;;;;;7.10;3.80;;;;;;;2.91;94.76;99028.23;134328;1304;22382;-72
2023/12/21 01:21:23;;;;;;;6.40;3.10;;;;;;;2.90;95.00;99019.20;134358;1296;22405;-72
2023/12/21 01:24:24;;;;;;;4.00;2.30;;;;;;;2.90;95.75;99012.09;134309;1298;22425;-73
2023/12/21 01:27:33;;;;;;;6.00;3.10;;;;;;;2.87;96.20;99005.69;134299;1297;22432;-72
2023/12/21 01:30:57;;;;;;;4.90;2.70;;;;;;;2.85;96.15;99002.05;134274;1304;22256;-73
2023/12/21 01:33:59;;;;;;;8.40;3.20;;;;;;;2.84;96.48;98993.40;134301;1298;22434;-72
2023/12/21 01:37:03;;;;;;;6.60;3.10;;;;;;;2.84;96.39;98988.66;134290;1298;22386;-72
2023/12/21 01:40:04;;;;;;;4.50;2.90;;;;;;;2.86;96.50;98988.01;134267;1301;22407;-72
2023/12/21 01:43:21;;;;;;;5.30;3.20;;;;;;;2.87;96.61;98978.80;134297;1298;22250;-72
2023/12/21 01:46:24;;;;;;;4.90;3.00;;;;;;;2.87;97.07;98967.95;134270;1298;22399;-72
2023/12/21 01:49:25;;;;;;;6.60;3.60;;;;;;;2.87;97.28;98958.92;134320;1298;22355;-72
2023/12/21 01:52:34;;;;;;;4.60;3.50;;;;;;;2.88;97.01;98954.61;134308;1304;22413;-72
2023/12/21 01:55:38;;;;;;;6.90;4.00;;;;;;;2.90;96.95;98948.48;134294;1298;22600;-72
2023/12/21 01:58:50;;;;;;;7.70;4.20;;;;;;;2.90;97.46;98939.52;134261;1298;22653;-72
2023/12/21 02:01:54;;;;;;;5.50;4.30;;;;;;;2.91;97.47;98925.73;134065;1299;22385;-73
2023/12/21 02:05:01;;;;;;;6.20;4.10;;;;;;;2.91;97.58;98919.35;134277;1298;23606;-72
2023/12/21 02:08:02;;;;;;;4.90;4.00;;;;;;;2.93;97.85;98914.86;134314;1298;22496;-72
2023/12/21 02:11:08;;;;;;;6.50;4.30;;;;;;;2.95;97.56;98907.98;134099;1298;22407;-72
2023/12/21 02:14:11;;;;;;;5.30;3.70;;;;;;;2.98;97.53;98892.83;134095;1303;23159;-72
2023/12/21 02:17:20;;;;;;;5.10;3.50;;;;;;;3.02;97.63;98881.48;134311;1298;22377;-72
2023/12/21 02:20:22;;;;;;;6.80;4.30;;;;;;;3.06;97.40;98871.80;134327;1297;22358;-72
2023/12/21 02:23:31;;;;;;;6.20;3.70;;;;;;;3.09;97.48;98859.62;134370;1298;22288;-72
2023/12/21 02:26:32;;;;;;;5.60;3.70;;;;;;;3.13;97.85;98848.28;134107;1298;22226;-72
2023/12/21 02:29:33;;;;;;;6.60;4.60;;;;;;;3.15;97.86;98834.61;134276;1304;22395;-72
2023/12/21 02:32:41;;;;;;;16.90;7.00;;;;;;;3.17;97.87;98829.90;134267;1304;22372;-72
2023/12/21 02:35:42;;;;;;;5.60;3.00;;;;;;;3.18;98.16;98813.83;134336;1304;22362;-72
2023/12/21 02:38:43;;;;;;;4.30;3.00;;;;;;;3.21;97.79;98794.74;134299;1304;22361;-72
2023/12/21 02:41:45;;;;;;;;;;;;;;;3.23;97.90;98788.77;134299;1298;22538;-72
2023/12/21 02:44:57;;;;;;;7.10;2.40;;;;;;;3.23;98.10;98785.39;134312;1304;23012;-72
2023/12/21 02:48:01;;;;;;;4.20;2.60;;;;;;;3.25;98.11;98775.80;134304;1298;23241;-72
2023/12/21 02:51:02;;;;;;;4.60;2.60;;;;;;;3.26;97.96;98756.05;134299;1298;22420;-72
2023/12/21 02:54:03;;;;;;;3.90;2.60;;;;;;;3.30;98.01;98749.73;134330;1296;22495;-72
2023/12/21 02:57:06;;;;;;;3.10;2.30;;;;;;;3.33;97.98;98740.50;134266;1298;22409;-72
2023/12/21 03:00:08;;;;;;;2.90;2.20;;;;;;;3.36;97.92;98737.56;134288;1304;23264;-73
2023/12/21 03:03:08;;;;;;;2.00;1.80;;;;;;;3.40;97.86;98730.28;134267;1304;22351;-72
2023/12/21 03:06:09;;;;;;;3.20;1.70;;;;;;;3.43;97.87;98727.88;134271;1298;22501;-72
2023/12/21 03:09:10;;;;;;;1.70;1.30;;;;;;;3.45;97.97;98721.13;134344;1301;22247;-72
2023/12/21 03:12:11;;;;;;;2.40;2.00;;;;;;;3.49;97.84;98715.65;134275;1298;23138;-72
2023/12/21 03:15:11;;;;;;;1.60;1.50;;;;;;;3.52;97.76;98707.38;134269;1298;22291;-72
2023/12/21 03:18:12;;;;;;;2.10;1.50;;;;;;;3.54;97.84;98704.34;134274;1298;24665;-72
2023/12/21 03:21:15;;;;;;;1.90;1.70;;;;;;;3.55;98.01;98696.64;134274;1303;22272;-72
2023/12/21 03:24:15;;;;;;;1.50;1.40;;;;;;;3.57;97.92;98685.66;134268;1304;22476;-72
2023/12/21 03:27:17;;;;;;;2.00;1.40;;;;;;;3.59;97.82;98681.61;134328;1304;22230;-73
2023/12/21 03:30:18;;;;;;;2.10;1.20;;;;;;;3.60;97.78;98677.81;134395;1304;22487;-72
2023/12/21 03:33:19;;;;;;;2.30;1.40;;;;;;;3.61;97.90;98670.73;134306;1304;22288;-72
2023/12/21 03:36:19;;;;;;;1.50;1.40;;;;;;;3.62;97.97;98661.02;134356;1304;23083;-72
2023/12/21 03:39:20;;;;;;;1.40;1.30;;;;;;;3.63;97.74;98649.35;134412;1297;22522;-72
2023/12/21 03:42:21;;;;;;;1.70;1.40;;;;;;;3.64;97.89;98649.16;134263;1304;22332;-72
2023/12/21 03:45:23;;;;;;;1.80;1.50;;;;;;;3.64;98.10;98645.14;134329;1304;22456;-72
2023/12/21 03:48:26;;;;;;;1.20;1.10;;;;;;;3.64;97.92;98636.71;134345;1304;22189;-73
2023/12/21 03:51:30;;;;;;;1.00;1.00;;;;;;;3.65;98.29;98625.95;134401;1298;22381;-71
2023/12/21 03:54:31;;;;;;;1.80;1.30;;;;;;;3.65;97.93;98615.23;134288;1298;22422;-72
2023/12/21 03:57:31;;;;;;;1.50;1.00;;;;;;;3.66;97.95;98607.11;134254;1298;22904;-71
2023/12/21 04:00:32;;;;;;;;;;;;;;;3.68;97.96;98600.98;134256;1297;22477;-72
2023/12/21 04:03:33;;;;;;;0.90;0.80;;;;;;;3.67;97.87;98598.55;134356;1298;22777;-72
2023/12/21 04:06:33;;;;;;;1.00;0.90;;;;;;;3.68;98.03;98591.17;134192;1297;22254;-72
2023/12/21 04:09:45;;;;;;;1.30;1.00;;;;;;;3.70;97.83;98584.52;134182;1297;22222;-72
2023/12/21 04:12:46;;;;;;;1.00;0.90;;;;;;;3.71;97.78;98571.41;134214;1298;22438;-72
2023/12/21 04:15:46;;;;;;;0.80;0.70;;;;;;;3.72;97.89;98565.74;134189;1297;23219;-72
2023/12/21 04:18:47;;;;;;;0.80;0.80;;;;;;;3.71;97.94;98558.42;134211;1298;22246;-72
2023/12/21 04:21:48;;;;;;;0.90;0.90;;;;;;;3.72;97.76;98553.90;134207;1298;22139;-72
2023/12/21 04:24:49;;;;;;;0.70;0.70;;;;;;;3.72;97.72;98546.16;134229;1298;22362;-72
2023/12/21 04:27:49;;;;;;;0.90;0.90;;;;;;;3.72;97.74;98545.73;134205;1298;22988;-72
2023/12/21 04:31:16;;;;;;;1.20;0.90;;;;;;;3.74;97.68;98545.27;134168;1304;22307;-72
2023/12/21 04:34:17;;;;;;;1.20;0.80;;;;;;;3.73;97.72;98545.27;134146;1298;22543;-72
2023/12/21 04:37:18;;;;;;;1.00;0.80;;;;;;;3.73;97.95;98541.11;133949;1304;22389;-72
2023/12/21 04:40:37;;;;;;;;;;;;;;;3.73;97.91;98546.06;134231;1297;22494;-72
2023/12/21 04:43:42;;;;;;;1.70;0.90;;;;;;;3.72;97.86;98539.90;134239;1304;22269;-72
2023/12/21 04:46:47;;;;;;;0.80;0.80;;;;;;;3.70;97.86;98522.91;134198;1297;22373;-72
2023/12/21 04:49:48;;;;;;;0.80;0.80;;;;;;;3.70;98.00;98519.40;134212;1300;22456;-72
2023/12/21 04:52:49;;;;;;;1.00;0.90;;;;;;;3.71;98.14;98523.90;134251;1304;22450;-72
2023/12/21 04:55:50;;;;;;;0.90;0.90;;;;;;;3.70;98.02;98523.80;134195;1304;22226;-72
2023/12/21 04:58:51;;;;;;;0.60;0.60;;;;;;;3.68;98.01;98514.05;134233;1298;22374;-72
2023/12/21 05:01:54;;;;;;;0.60;0.60;;;;;;;3.67;97.98;98514.64;134202;1298;22348;-72
2023/12/21 05:04:55;;;;;;;0.90;0.90;;;;;;;3.67;98.20;98508.77;134030;1305;23189;-72
2023/12/21 05:07:55;;;;;;;;;;;;;;;3.66;98.05;98504.83;134240;1301;22505;-72
2023/12/21 05:10:56;;;;;;;1.30;0.90;;;;;;;3.64;98.37;98507.48;134293;1288;22477;-72
2023/12/21 05:14:00;;;;;;;1.20;1.10;;;;;;;3.63;98.23;98508.80;134250;1304;22248;-72
2023/12/21 05:17:04;;;;;;;0.80;0.80;;;;;;;3.62;98.55;98503.33;134269;1298;22380;-72
2023/12/21 05:20:24;;;;;;;1.50;1.00;;;;;;;3.62;98.45;98502.15;134059;1303;242640;-72
2023/12/21 05:23:28;;;;;;;1.30;0.90;;;;;;;3.62;98.59;98499.16;134271;1282;22399;-72
2023/12/21 05:26:30;;;;;;;1.40;1.10;;;;;;;3.61;98.60;98495.36;134177;1298;22843;-72
2023/12/21 05:29:31;;;;;;;4.70;1.30;;;;;;;3.61;98.87;98498.58;134256;1298;23030;-72
2023/12/21 05:32:32;;;;;;;0.90;0.90;;;;;;;3.61;98.70;98499.77;134253;1304;22451;-73
2023/12/21 05:35:36;;;;;;;0.90;0.90;;;;;;;3.62;98.57;98506.02;134022;1298;22448;-73
2023/12/21 05:38:44;;;;;;;2.20;1.40;;;;;;;3.62;98.82;98504.86;134225;1299;22481;-73
2023/12/21 05:41:45;;;;;;;0.70;0.70;;;;;;;3.63;98.83;98497.24;134248;1298;23118;-73
2023/12/21 05:44:48;;;;;;;1.30;1.20;;;;;;;3.64;98.76;98495.06;134228;1294;22383;-73
2023/12/21 05:47:49;;;;;;;;;;;;;;;3.65;98.80;98498.95;134146;1298;23120;-73
2023/12/21 05:50:50;;;;;;;2.10;1.30;;;;;;;3.67;98.80;98489.86;134237;1304;22141;-72
2023/12/21 05:53:54;;;;;;;1.50;1.20;;;;;;;3.67;98.51;98489.27;134251;1298;23510;-73
2023/12/21 05:57:03;;;;;;;0.90;0.70;;;;;;;3.68;98.55;98482.38;134255;1304;22397;-74
2023/12/21 06:00:07;;;;;;;1.00;0.80;;;;;;;3.69;98.54;98470.05;134243;1298;22356;-77
2023/12/21 06:03:16;;;;;;;1.00;0.80;;;;;;;3.69;98.75;98465.10;134271;1298;23156;-74
2023/12/21 06:10:18;;;;;;;1.40;1.10;;;;;;;3.70;98.56;98467.86;134158;1298;22238;-74
2023/12/21 06:13:21;;;;;;;;;;;;;;;3.71;98.99;98463.76;134277;1297;23247;-74
2023/12/21 06:16:30;;;;;;;;;;;;;;;3.71;98.87;98462.27;134222;1298;22455;-74
2023/12/21 06:19:31;;;;;;;1.00;0.90;;;;;;;3.72;98.63;98456.61;134268;1298;22250;-74
2023/12/21 06:22:39;;;;;;;2.50;1.20;;;;;;;3.72;98.83;98455.72;134253;1304;22443;-74
2023/12/21 06:25:50;;;;;;;2.60;0.90;;;;;;;3.73;98.69;98452.80;134247;1298;22509;-74
2023/12/21 06:28:51;;;;;;;;;;;;;;;3.76;98.41;98451.46;134243;1305;22543;-74
2023/12/21 06:31:55;;;;;;;2.10;1.10;;;;;;;3.78;98.46;98449.16;134230;1298;22283;-74
2023/12/21 06:34:56;;;;;;;1.20;1.10;;;;;;;3.78;98.40;98448.21;134233;1299;22451;-74
2023/12/21 06:37:57;;;;;;;2.00;1.30;;;;;;;3.80;98.36;98449.91;134238;1298;24816;-74
2023/12/21 06:41:03;;;;;;;2.00;1.30;;;;;;;3.81;98.13;98448.64;134255;1298;22196;-74
2023/12/21 06:44:04;;;;;;;1.30;1.20;;;;;;;3.81;98.26;98442.27;134265;1301;22433;-74
2023/12/21 06:47:07;;;;;;;2.40;1.80;;;;;;;3.83;98.39;98438.61;134234;1298;22485;-74
2023/12/21 06:50:10;;;;;;;;;;;;;;;3.85;98.15;98440.49;134240;1298;23208;-74
2023/12/21 06:53:15;;;;;;;1.60;1.00;;;;;;;3.87;97.82;98441.04;134226;1304;22141;-75
2023/12/21 06:56:17;;;;;;;3.40;1.50;;;;;;;3.89;97.76;98434.34;134200;1298;23092;-74
2023/12/21 06:59:18;;;;;;;1.40;1.10;;;;;;;3.91;97.78;98433.08;134198;1298;22473;-75
2023/12/21 07:02:19;;;;;;;;;;;;;;;3.93;97.60;98423.94;134242;1301;22477;-75
2023/12/21 07:05:20;;;;;;;2.80;1.40;;;;;;;3.95;97.40;98426.79;134199;1298;22362;-74
2023/12/21 07:08:22;;;;;;;1.30;1.20;;;;;;;3.97;97.49;98424.20;134225;1298;23303;-74
2023/12/21 07:11:23;;;;;;;2.30;1.60;;;;;;;3.98;97.63;98426.13;134210;1298;22359;-74
2023/12/21 07:14:24;;;;;;;2.20;1.90;;;;;;;3.99;97.63;98427.05;134245;1304;22289;-75
2023/12/21 07:17:27;;;;;;;1.80;1.60;;;;;;;4.01;97.57;98426.15;134237;1298;22355;-75
2023/12/21 07:20:30;;;;;;;1.90;1.60;;;;;;;4.03;97.52;98419.14;134254;1298;22354;-75
2023/12/21 07:23:31;;;;;;;2.60;2.00;;;;;;;4.07;97.00;98418.41;134162;1298;22368;-73
2023/12/21 07:26:40;;;;;;;2.00;1.70;;;;;;;4.10;97.07;98416.63;134063;1304;23467;-74
2023/12/21 07:29:43;;;;;;;;;;;;;;;4.14;97.05;98416.59;134215;1301;22462;-74
2023/12/21 07:32:44;;;;;;;3.10;2.00;;;;;;;4.17;97.15;98410.16;134219;1301;23178;-73
2023/12/21 07:35:45;;;;;;;3.10;2.40;;;;;;;4.21;96.96;98406.37;134207;1304;22343;-73
2023/12/21 07:38:46;;;;;;;2.50;1.90;;;;;;;4.25;96.57;98402.03;134182;1301;23229;-74
2023/12/21 07:41:48;;;;;;;4.60;2.20;;;;;;;4.30;96.72;98399.45;134207;1298;22435;-73
2023/12/21 07:44:51;;;;;;;4.00;2.50;;;;;;;4.33;96.47;98393.64;134225;1301;23052;-74
2023/12/21 07:47:56;;;;;;;3.20;1.90;;;;;;;4.37;96.59;98385.11;134230;1298;22424;-74
2023/12/21 07:50:57;;;;;;;2.60;1.80;;;;;;;4.42;96.22;98379.46;134206;1298;22208;-74
2023/12/21 07:54:00;;;;;;;3.10;2.40;;;;;;;4.47;95.94;98369.52;134170;1298;22401;-74
2023/12/21 07:57:04;;;;;;;2.40;1.60;;;;;;;4.51;95.53;98359.47;134224;1298;23184;-74
2023/12/21 08:00:06;;;;;;;3.20;1.50;;;;;;;4.56;95.48;98351.38;134202;1288;22403;-74
2023/12/21 08:03:09;;;;;;;3.20;1.60;;;;;;;4.60;95.74;98341.26;134186;1299;22360;-73
2023/12/21 08:06:19;;;;;;;1.60;1.50;;;;;;;4.65;94.85;98334.48;134075;1304;23623;-73
2023/12/21 08:09:22;;;;;;;3.40;1.90;;;;;;;4.69;94.88;98327.82;134091;1294;23127;-73
2023/12/21 08:12:23;;;;;;;2.40;1.80;;;;;;;4.74;94.74;98320.44;134064;1294;22219;-73
2023/12/21 08:15:30;;;;;;;2.00;1.60;;;;;;;4.77;94.70;98313.98;134116;1305;22502;-73
2023/12/21 08:18:33;;;;;;;2.50;1.70;;;;;;;4.80;94.37;98306.31;134111;1298;22395;-74
2023/12/21 08:21:34;;;;;;;2.50;1.70;;;;;;;4.82;94.27;98306.15;134068;1301;22523;-73
2023/12/21 08:24:35;;;;;;;6.20;2.10;;;;;;;4.84;94.08;98306.91;134083;1298;22354;-73
2023/12/21 08:27:36;;;;;;;2.30;1.50;;;;;;;4.86;93.99;98303.96;134102;1299;22373;-73
2023/12/21 08:30:39;;;;;;;;;;;;;;;4.87;93.52;98299.51;134066;1304;22698;-72
2023/12/21 08:33:39;;;;;;;3.70;1.80;;;;;;;4.88;93.79;98293.77;134066;1301;22464;-72
2023/12/21 08:36:40;;;;;;;1.40;1.30;;;;;;;4.89;93.08;98284.92;134069;1298;22348;-72
2023/12/21 08:39:41;;;;;;;;;;;;;;;4.92;92.84;98279.52;134096;1304;22456;-73
2023/12/21 08:42:45;;;;;;;;;;;;;;;4.94;92.68;98272.93;134079;1298;22596;-73
2023/12/21 08:45:46;;;;;;;2.80;1.90;;;;;;;4.97;92.77;98270.06;134080;1298;22388;-72
2023/12/21 08:48:46;;;;;;;;;;;;;;;4.99;93.13;98263.14;134018;1305;22483;-74
2023/12/21 08:51:47;;;;;;;2.30;1.60;;;;;;;5.00;92.52;98254.52;134075;1298;22609;-73
2023/12/21 08:54:48;;;;;;;;;;;;;;;5.03;92.82;98251.48;134128;1302;22435;-73
2023/12/21 08:57:49;;;;;;;1.90;1.50;;;;;;;5.03;92.54;98247.04;134107;1298;22450;-74
2023/12/21 09:01:10;;;;;;;;;;;;;;;5.02;92.84;98230.89;134043;1301;22455;-74
2023/12/21 09:04:11;;;;;;;2.30;1.30;;;;;;;5.02;93.17;98226.36;134094;1304;22562;-74
2023/12/21 09:07:17;;;;;;;1.60;1.30;;;;;;;5.02;92.69;98221.83;134137;1304;22268;-74
2023/12/21 09:10:22;;;;;;;3.70;1.10;;;;;;;5.03;93.18;98215.73;134224;1304;22272;-74
2023/12/21 09:13:23;;;;;;;2.20;1.30;;;;;;;5.05;93.09;98205.95;134182;1304;22353;-74
2023/12/21 09:16:41;;;;;;;1.60;1.30;;;;;;;5.06;93.46;98201.48;134181;1304;22484;-74
2023/12/21 09:19:45;;;;;;;1.90;1.20;;;;;;;5.06;93.43;98185.25;134198;1299;22412;-73
2023/12/21 09:22:49;;;;;;;2.30;1.30;;;;;;;5.05;93.28;98176.17;134199;1299;22375;-74
2023/12/21 09:25:55;;;;;;;1.60;1.40;;;;;;;5.03;93.38;98172.91;134105;1298;22288;-74
2023/12/21 09:29:05;;;;;;;2.40;1.20;;;;;;;5.03;93.49;98165.58;134217;1298;23209;-74
2023/12/21 09:32:19;;;;;;;2.80;1.50;;;;;;;5.04;93.83;98155.16;134183;1299;22247;-74
2023/12/21 09:35:21;;;;;;;1.40;1.30;;;;;;;5.06;93.66;98146.50;134239;1299;22503;-74
2023/12/21 09:38:25;;;;;;;2.10;1.50;;;;;;;5.07;93.67;98132.63;134175;1305;22422;-74
2023/12/21 09:41:49;;;;;;;1.50;1.20;;;;;;;5.10;93.64;98126.71;134188;1298;23071;-75
2023/12/21 09:44:54;;;;;;;3.40;1.70;;;;;;;5.11;93.97;98124.30;134185;1302;22363;-75
2023/12/21 09:48:28;;;;;;;;;;;;;;;;;;;;;
2023/12/21 09:55:20;;;;;;;2.00;1.50;;;;;;;5.19;93.99;98088.73;133866;1302;22271;-75
2023/12/21 09:58:25;;;;;;;2.00;1.40;;;;;;;5.22;93.89;98077.45;134203;1299;22397;-75
2023/12/21 10:01:26;;;;;;;2.60;1.40;;;;;;;5.25;93.49;98068.17;134172;1298;22364;-74
2023/12/21 10:04:33;;;;;;;1.30;1.20;;;;;;;5.26;93.71;98057.18;133992;1301;22464;-74
2023/12/21 10:07:39;;;;;;;2.40;1.10;;;;;;;5.26;93.71;98045.17;134066;1299;23190;-74
2023/12/21 10:10:49;;;;;;;3.80;1.20;;;;;;;5.25;93.61;98035.77;134239;1291;22385;-74
2023/12/21 10:14:27;;;;;;;1.80;1.30;;;;;;;5.24;93.72;98022.17;134215;1299;22321;-74
2023/12/21 10:17:41;;;;;;;1.60;1.50;;;;;;;5.23;93.74;98016.52;134173;1298;23201;-74
2023/12/21 10:20:47;;;;;;;1.30;1.20;;;;;;;5.20;94.16;98009.54;134058;1298;22480;-75
2023/12/21 10:23:49;;;;;;;2.20;1.70;;;;;;;5.18;94.07;98007.45;134240;1298;22383;-75
2023/12/21 10:26:51;;;;;;;2.30;1.80;;;;;;;5.16;94.57;97997.86;134231;1299;22266;-75
2023/12/21 10:29:53;;;;;;;2.10;1.50;;;;;;;5.16;94.51;97980.13;134097;1299;22228;-74
2023/12/21 10:33:16;;;;;;;;;;;;;;;5.17;94.39;97962.11;134233;1302;22433;-75
2023/12/21 10:36:19;;;;;;;2.00;1.30;;;;;;;5.16;94.69;97957.16;134205;1301;22238;-75
2023/12/21 10:39:41;;;;;;;2.00;1.30;;;;;;;5.13;94.87;97947.13;134093;1295;22453;-75
2023/12/21 10:42:53;;;;;;;1.40;1.20;;;;;;;5.08;95.06;97942.91;134230;1298;22878;-75
2023/12/21 10:45:55;;;;;;;3.10;1.70;;;;;;;5.04;95.04;97930.61;134239;1300;23300;-75
2023/12/21 10:49:01;;;;;;;1.60;1.30;;;;;;;4.99;95.07;97920.03;134230;1298;22265;-75
2023/12/21 10:52:05;;;;;;;2.00;1.50;;;;;;;4.97;95.24;97904.36;134226;1298;22435;-74
2023/12/21 10:55:10;;;;;;;3.00;2.10;;;;;;;4.94;95.29;97895.77;134030;1304;22432;-75
2023/12/21 10:58:13;;;;;;;1.90;1.30;;;;;;;4.93;95.43;97883.79;134212;1298;23191;-75
2023/12/21 11:01:15;;;;;;;1.50;1.40;;;;;;;4.92;95.54;97873.05;134047;1304;22251;-74
2023/12/21 11:04:52;;;;;;;2.30;1.40;;;;;;;4.90;95.52;97856.75;134199;1298;22224;-73
2023/12/21 11:07:54;;;;;;;2.50;1.60;;;;;;;4.89;95.73;97837.05;134169;1298;22341;-74
2023/12/21 11:19:41;;;;;;;4.30;2.00;;;;;;;4.88;95.84;97800.78;134184;1298;22398;-73
2023/12/21 11:23:07;;;;;;;2.70;1.90;;;;;;;4.89;96.12;97793.65;134067;1298;22265;-73
2023/12/21 11:26:18;;;;;;;2.80;2.00;;;;;;;4.91;96.27;97784.67;134035;1298;23182;-72
2023/12/21 11:29:38;;;;;;;6.20;3.70;;;;;;;4.93;96.37;97762.86;134232;1298;23209;-72
2023/12/21 11:32:43;;;;;;;5.80;3.90;;;;;;;4.96;96.44;97748.29;134160;1298;23237;-75
2023/12/21 11:35:53;;;;;;;8.80;4.50;;;;;;;5.00;96.50;97736.80;134188;1298;22455;-75
2023/12/21 11:38:56;;;;;;;4.00;2.30;;;;;;;5.03;96.46;97731.85;134259;1291;22394;-75
2023/12/21 11:41:59;;;;;;;1.60;1.50;;;;;;;5.05;96.45;97726.04;134205;1304;22243;-74
2023/12/21 11:45:21;;;;;;;3.40;2.30;;;;;;;5.06;96.63;97720.50;134202;1298;23157;-73
2023/12/21 11:48:22;;;;;;;2.60;1.60;;;;;;;5.08;96.58;97712.96;134199;1304;22223;-74
2023/12/21 11:51:22;;;;;;;;;;;;;;;5.12;96.50;97710.29;134188;1298;22486;-74
2023/12/21 11:54:25;;;;;;;2.10;1.60;;;;;;;5.13;96.81;97687.54;134169;1300;23089;-72
2023/12/21 11:57:35;;;;;;;7.80;3.20;;;;;;;5.13;96.67;97676.94;134248;1298;22360;-73
2023/12/21 12:00:49;;;;;;;6.60;3.70;;;;;;;5.15;96.84;97672.05;134215;1298;22261;-71
2023/12/21 12:03:52;;;;;;;13.50;4.50;;;;;;;5.15;96.93;97658.90;134067;1304;22365;-71
2023/12/21 12:07:01;;;;;;;3.70;2.30;;;;;;;5.14;96.96;97652.56;134156;1304;22452;-73
2023/12/21 12:10:03;;;;;;;5.70;3.00;;;;;;;5.12;97.07;97646.73;134060;1305;22431;-71
2023/12/21 12:13:05;;;;;;;3.10;2.50;;;;;;;5.12;97.24;97642.59;134126;1298;22427;-71
2023/12/21 12:16:12;;;;;;;4.70;2.80;;;;;;;5.10;97.21;97634.41;134079;1298;22403;-71
2023/12/21 12:19:13;;;;;;;4.00;2.00;;;;;;;5.09;97.33;97630.19;134070;1303;22384;-72
2023/12/21 12:22:14;;;;;;;3.50;2.20;;;;;;;5.07;97.64;97618.19;134187;1298;22394;-71
2023/12/21 12:25:16;;;;;;;5.10;2.80;;;;;;;5.05;97.57;97607.40;134119;1298;23140;-72
2023/12/21 12:28:18;;;;;;;3.60;2.20;;;;;;;5.03;97.90;97591.02;134095;1298;23170;-72
2023/12/21 12:31:19;;;;;;;6.30;3.20;;;;;;;5.02;97.91;97579.05;134128;1298;23724;-72
2023/12/21 12:34:20;;;;;;;5.90;3.00;;;;;;;5.02;98.14;97570.67;134038;1305;22348;-71
2023/12/21 12:37:23;;;;;;;;;;;;;;;5.01;98.17;97569.52;134136;1298;22457;-71
2023/12/21 12:40:27;;;;;;;3.90;2.20;;;;;;;5.00;98.20;97555.70;134098;1301;22371;-73
2023/12/21 12:43:34;;;;;;;5.40;3.20;;;;;;;5.00;98.32;97546.88;134087;1298;23460;-72
2023/12/21 12:46:35;;;;;;;6.40;2.50;;;;;;;5.00;98.40;97538.15;134062;1305;22273;-72
2023/12/21 12:49:41;;;;;;;5.70;2.50;;;;;;;5.01;98.41;97529.91;134109;1305;22205;-72
2023/12/21 12:52:44;;;;;;;6.40;3.50;;;;;;;5.02;98.40;97514.23;134056;1298;22366;-71
2023/12/21 12:55:49;;;;;;;10.10;5.10;;;;;;;5.03;98.61;97498.77;134177;1298;22385;-71
2023/12/21 12:58:50;;;;;;;19.50;9.50;;;;;;;5.03;98.52;97492.83;134164;1298;22396;-71
2023/12/21 13:01:51;;;;;;;8.70;3.70;;;;;;;5.03;98.41;97477.59;134073;1298;22252;-73
2023/12/21 13:04:52;;;;;;;;;;;;;;;5.04;98.55;97469.10;134125;1305;23076;-73
2023/12/21 13:07:53;;;;;;;3.80;2.40;;;;;;;5.04;98.53;97460.89;134174;1304;22437;-71
2023/12/21 13:10:54;;;;;;;;;;;;;;;5.04;98.59;97447.21;134268;1298;23113;-72
2023/12/21 13:14:17;;;;;;;;;;;;;;;5.04;98.84;97435.63;134329;1298;22461;-72
2023/12/21 13:17:21;;;;;;;5.10;2.50;;;;;;;5.05;98.84;97427.80;134266;1304;22374;-73
2023/12/21 13:20:25;;;;;;;8.90;5.20;;;;;;;5.07;99.00;97420.16;134302;1298;22384;-73
2023/12/21 13:23:26;;;;;;;14.10;7.20;;;;;;;5.08;98.97;97409.11;134027;1298;22196;-73
2023/12/21 13:27:01;;;;;;;7.60;3.70;;;;;;;5.08;99.10;97402.13;134207;1298;24411;-72
2023/12/21 13:30:17;;;;;;;;;;;;;;;;;;;;;
2023/12/21 13:33:26;;;;;;;5.00;2.90;;;;;;;5.09;98.92;97387.96;134212;1298;22398;-73
2023/12/21 13:36:27;;;;;;;4.60;2.90;;;;;;;5.09;98.75;97378.52;134117;1297;23368;-73
2023/12/21 13:39:31;;;;;;;4.50;2.60;;;;;;;5.10;98.62;97368.29;134174;1291;22375;-73
2023/12/21 13:42:32;;;;;;;3.50;2.80;;;;;;;5.11;98.62;97347.18;134239;1298;22376;-73
2023/12/21 13:45:42;;;;;;;4.00;2.50;;;;;;;5.10;98.70;97334.69;134311;1298;22287;-73
2023/12/21 13:48:43;;;;;;;4.50;2.70;;;;;;;5.09;98.58;97324.92;134250;1298;25477;-73
2023/12/21 13:51:45;;;;;;;;;;;;;;;5.09;98.35;97311.63;134283;1298;24053;-73
2023/12/21 13:54:46;;;;;;;3.70;2.30;;;;;;;5.09;98.53;97301.80;134277;1298;22261;-73
2023/12/21 13:58:35;;;;;;;3.40;2.20;;;;;;;5.08;98.52;97294.73;134257;1298;23614;-73
2023/12/21 14:01:41;;;;;;;2.70;2.10;;;;;;;5.08;98.47;97281.27;134199;1298;22309;-73
2023/12/21 14:04:53;;;;;;;3.40;2.20;;;;;;;5.07;98.61;97264.77;134300;1298;22529;-73
2023/12/21 14:07:54;;;;;;;3.10;1.80;;;;;;;5.06;98.69;97255.90;134275;1298;22279;-73
2023/12/21 14:10:55;;;;;;;2.50;1.60;;;;;;;5.06;98.65;97250.48;134240;1301;22358;-73
2023/12/21 14:13:55;;;;;;;;;;;;;;;5.06;98.52;97242.08;134242;1298;22453;-73
2023/12/21 14:16:56;;;;;;;4.10;1.70;;;;;;;5.06;98.64;97232.33;134283;1298;23060;-73
2023/12/21 14:20:08;;;;;;;2.50;1.70;;;;;;;5.06;98.74;97227.36;134249;1297;23225;-73
2023/12/21 14:23:09;;;;;;;5.70;2.80;;;;;;;5.06;98.48;97220.00;134237;1304;23363;-73
2023/12/21 14:26:12;;;;;;;4.30;2.50;;;;;;;5.06;98.59;97218.14;134244;1298;23312;-73
2023/12/21 14:29:17;;;;;;;2.40;1.70;;;;;;;5.06;98.69;97207.10;134208;1297;22233;-75
2023/12/21 14:32:18;;;;;;;2.90;2.00;;;;;;;5.07;98.63;97195.23;134201;1298;22488;-73
2023/12/21 14:35:22;;;;;;;3.50;1.90;;;;;;;5.08;98.62;97187.54;133975;1301;22231;-73
2023/12/21 14:38:46;;;;;;;3.70;1.90;;;;;;;5.08;98.79;97184.75;134258;1297;22364;-74
2023/12/21 14:41:53;;;;;;;2.30;1.50;;;;;;;5.08;98.75;97169.19;134230;1298;22950;-75
2023/12/21 14:44:56;;;;;;;3.10;2.20;;;;;;;5.09;98.76;97161.17;134235;1298;22493;-76
2023/12/21 14:47:57;;;;;;;3.30;2.50;;;;;;;5.11;98.78;97154.02;134242;1294;23271;-75
2023/12/21 14:50:58;;;;;;;;;;;;;;;5.12;98.61;97136.66;134237;1299;22471;-73
2023/12/21 14:54:00;;;;;;;3.50;2.20;;;;;;;5.12;98.64;97124.38;134026;1301;22257;-75
2023/12/21 14:57:01;;;;;;;2.90;1.80;;;;;;;5.13;98.47;97112.85;134214;1298;22279;-73